Time;durP1;ratioP1;P1;durP2;ratioP2;P2;SDS_P1;SDS_P2;PMS_P1;PMS_P2;Temp;Humidity;BMP_temperature;BMP_pressure;BME280_temperature;BME280_humidity;BME280_pressure;Samples;Min_cycle;Max_cycle;Signal;HPM_P1;HPM_P2
2022/06/07 00:02:05;;;;;;;1.40;1.30;;;;;;;22.11;45.91;97471.53;5049481;28;20467;-71
2022/06/07 00:04:31;;;;;;;1.87;1.50;;;;;;;22.08;46.29;97475.44;5059854;28;20437;-71
2022/06/07 00:06:57;;;;;;;3.40;1.60;;;;;;;22.07;46.48;97463.97;5053600;28;20453;-70
2022/06/07 00:09:23;;;;;;;1.77;1.67;;;;;;;22.04;45.99;97466.25;5053728;28;20440;-71
2022/06/07 00:11:48;;;;;;;1.63;1.53;;;;;;;22.05;45.75;97463.34;5054068;28;20273;-71
2022/06/07 00:14:14;;;;;;;2.20;1.73;;;;;;;22.07;45.83;97465.78;5053430;28;20660;-70
2022/06/07 00:16:39;;;;;;;3.20;1.40;;;;;;;22.07;45.90;97465.78;5053414;28;20199;-71
2022/06/07 00:19:05;;;;;;;2.27;1.30;;;;;;;22.05;45.74;97476.69;5053770;28;20187;-70
2022/06/07 00:21:31;;;;;;;4.40;1.60;;;;;;;22.03;46.11;97468.09;5053737;28;20206;-71
2022/06/07 00:23:59;;;;;;;7.33;1.50;;;;;;;22.01;46.15;97475.50;5053493;28;20187;-70
2022/06/07 00:26:25;;;;;;;3.10;1.67;;;;;;;21.98;45.73;97475.97;5053237;28;20199;-70
2022/06/07 00:28:50;;;;;;;1.73;1.33;;;;;;;21.92;46.48;97468.81;5052546;28;20433;-70
2022/06/07 00:31:16;;;;;;;3.20;1.63;;;;;;;21.94;46.59;97470.22;5049123;28;20722;-70
2022/06/07 00:33:41;;;;;;;1.70;1.60;;;;;;;21.89;46.58;97472.75;5051271;28;20286;-71
2022/06/07 00:36:08;;;;;;;1.60;1.50;;;;;;;21.85;46.53;97474.22;5057333;28;20191;-71
2022/06/07 00:38:34;;;;;;;1.67;1.40;;;;;;;21.82;46.48;97471.16;5052098;28;20314;-72
2022/06/07 00:41:00;;;;;;;3.80;1.30;;;;;;;21.80;47.09;97474.03;5053509;28;20508;-73
2022/06/07 00:43:25;;;;;;;3.40;1.67;;;;;;;21.81;46.96;97473.00;5057079;28;20434;-71
2022/06/07 00:45:51;;;;;;;1.70;1.60;;;;;;;21.80;46.76;97468.69;5052734;28;20191;-71
2022/06/07 00:48:17;;;;;;;1.80;1.43;;;;;;;21.74;46.96;97464.25;5052094;28;20306;-71
2022/06/07 00:50:51;;;;;;;1.80;1.70;;;;;;;21.71;47.48;97472.69;5060887;28;20194;-71
2022/06/07 00:53:26;;;;;;;1.60;1.30;;;;;;;21.69;47.26;97466.75;5053068;28;20217;-71
2022/06/07 00:55:53;;;;;;;1.87;1.23;;;;;;;21.61;47.15;97466.00;5053179;28;20797;-71
2022/06/07 00:58:19;;;;;;;2.13;1.30;;;;;;;21.68;46.99;97470.44;5052491;28;20450;-71
2022/06/07 01:00:45;;;;;;;2.87;1.30;;;;;;;21.63;47.27;97466.59;5049044;28;20465;-71
2022/06/07 01:03:11;;;;;;;3.90;1.60;;;;;;;21.57;47.61;97471.94;5059884;28;20456;-70
2022/06/07 01:05:36;;;;;;;1.60;1.30;;;;;;;21.60;47.59;97464.34;5051664;28;20190;-70
2022/06/07 01:10:47;;;;;;;2.03;1.40;;;;;;;21.53;48.83;97468.91;5052686;28;20191;-72
2022/06/07 01:13:15;;;;;;;2.60;1.60;;;;;;;21.46;49.16;97468.94;5051556;28;20467;-71
2022/06/07 01:15:45;;;;;;;1.40;1.30;;;;;;;21.43;49.22;97461.38;5052977;28;20421;-71
2022/06/07 01:18:11;;;;;;;1.87;1.40;;;;;;;21.35;49.24;97466.97;5052134;28;20477;-72
2022/06/07 01:20:37;;;;;;;1.67;1.40;;;;;;;21.33;49.11;97464.50;5051119;28;20508;-70
2022/06/07 01:23:02;;;;;;;2.60;1.50;;;;;;;21.36;50.04;97462.44;5052500;28;20536;-71
2022/06/07 01:25:28;;;;;;;2.70;1.53;;;;;;;21.34;49.90;97462.69;5050803;28;20191;-70
2022/06/07 01:27:54;;;;;;;1.70;1.43;;;;;;;21.27;50.24;97462.72;5047422;28;20203;-70
2022/06/07 01:30:19;;;;;;;4.97;1.40;;;;;;;21.24;50.36;97463.13;5047231;28;20270;-72
2022/06/07 01:32:45;;;;;;;3.80;1.50;;;;;;;21.21;50.93;97470.75;5051176;28;20329;-70
2022/06/07 01:35:10;;;;;;;1.83;1.60;;;;;;;21.22;51.75;97470.53;5055929;28;20779;-71
2022/06/07 01:37:36;;;;;;;4.73;1.83;;;;;;;21.15;51.84;97464.44;5047152;28;20203;-71
2022/06/07 01:42:45;;;;;;;2.13;1.47;;;;;;;21.16;52.30;97460.75;5046767;28;20170;-69
2022/06/07 01:45:11;;;;;;;2.30;1.73;;;;;;;21.15;50.64;97464.44;5051559;28;20944;-71
2022/06/07 01:47:38;;;;;;;2.00;1.27;;;;;;;21.07;51.28;97462.00;5050552;28;20203;-70
2022/06/07 01:50:05;;;;;;;4.30;1.60;;;;;;;21.04;51.47;97459.78;5051911;28;20183;-71
2022/06/07 01:52:33;;;;;;;3.10;1.40;;;;;;;21.05;51.83;97461.38;5051778;28;20991;-71
2022/06/07 01:54:59;;;;;;;3.50;1.20;;;;;;;21.02;50.74;97451.97;5051754;28;20433;-70
2022/06/07 01:57:24;;;;;;;1.47;1.30;;;;;;;20.99;51.52;97455.91;5051436;28;20489;-71
2022/06/07 01:59:50;;;;;;;2.63;1.40;;;;;;;20.98;51.59;97459.59;5048205;28;20473;-70
2022/06/07 02:02:16;;;;;;;2.03;1.20;;;;;;;20.97;51.28;97452.63;5050690;28;20186;-71
2022/06/07 02:04:42;;;;;;;6.07;1.30;;;;;;;20.89;51.13;97450.22;5058026;28;20433;-72
2022/06/07 02:07:08;;;;;;;2.70;1.23;;;;;;;20.88;51.49;97451.25;5049892;28;20226;-71
2022/06/07 02:09:34;;;;;;;2.07;1.30;;;;;;;20.82;51.11;97452.09;5051783;28;21013;-72
2022/06/07 02:12:00;;;;;;;1.30;0.97;;;;;;;20.83;51.60;97453.72;5051417;28;20567;-71
2022/06/07 02:14:27;;;;;;;2.90;1.20;;;;;;;20.76;51.41;97444.97;5051601;28;20179;-70
2022/06/07 02:16:52;;;;;;;1.30;1.20;;;;;;;20.67;51.84;97445.16;5051244;28;20544;-71
2022/06/07 02:19:18;;;;;;;2.43;1.20;;;;;;;20.65;51.97;97441.91;5051523;28;20524;-71
2022/06/07 02:21:43;;;;;;;2.57;1.20;;;;;;;20.63;52.34;97443.13;5051052;28;20339;-71
2022/06/07 02:24:09;;;;;;;2.67;1.10;;;;;;;20.62;52.16;97433.50;5051638;28;20604;-70
2022/06/07 02:26:36;;;;;;;1.73;0.90;;;;;;;20.63;52.18;97433.31;5050991;28;20202;-72
2022/06/07 02:29:06;;;;;;;5.87;1.40;;;;;;;20.67;50.37;97428.38;5049777;28;20560;-70
2022/06/07 02:31:33;;;;;;;2.03;1.00;;;;;;;20.66;50.51;97424.06;5045517;28;20429;-70
2022/06/07 02:33:59;;;;;;;4.40;1.10;;;;;;;20.60;50.31;97424.94;5053218;28;20465;-70
2022/06/07 02:36:25;;;;;;;1.30;1.03;;;;;;;20.64;49.87;97424.28;5055070;28;20500;-70
2022/06/07 02:38:51;;;;;;;1.47;1.20;;;;;;;20.57;50.23;97420.81;5053930;28;20437;-71
2022/06/07 02:41:19;;;;;;;2.63;2.33;;;;;;;20.57;50.48;97412.84;5049543;28;20984;-70
2022/06/07 02:43:45;;;;;;;10.90;5.50;;;;;;;20.50;50.38;97412.06;5049941;28;20185;-71
2022/06/07 02:46:10;;;;;;;4.60;1.87;;;;;;;20.57;50.40;97410.19;5050583;28;20421;-71
2022/06/07 02:48:36;;;;;;;1.83;1.50;;;;;;;20.51;51.15;97409.19;5050878;28;20654;-72
2022/06/07 02:51:03;;;;;;;2.57;1.27;;;;;;;20.57;50.60;97407.50;5051026;28;20433;-71
2022/06/07 02:53:29;;;;;;;1.47;1.37;;;;;;;20.55;52.26;97399.75;5051257;28;20218;-72
2022/06/07 02:55:54;;;;;;;3.63;3.33;;;;;;;20.57;52.13;97399.53;5051281;28;20452;-70
2022/06/07 02:58:20;;;;;;;4.90;3.67;;;;;;;20.54;53.99;97392.78;5050487;28;20207;-71
2022/06/07 03:00:46;;;;;;;3.00;2.37;;;;;;;20.53;54.47;97401.00;5046697;28;20265;-70
2022/06/07 03:03:11;;;;;;;2.67;1.50;;;;;;;20.50;53.49;97404.06;5057377;28;20399;-71
2022/06/07 03:05:37;;;;;;;2.00;1.20;;;;;;;20.50;51.48;97402.22;5050994;28;20524;-70
2022/06/07 03:08:03;;;;;;;5.20;1.47;;;;;;;20.50;51.96;97401.41;5050352;28;20238;-71
2022/06/07 03:10:28;;;;;;;3.37;2.07;;;;;;;20.49;52.69;97405.09;5053642;28;20649;-71
2022/06/07 03:12:54;;;;;;;1.60;1.50;;;;;;;20.44;51.38;97407.56;5040073;28;20475;-71
2022/06/07 03:15:19;;;;;;;1.33;1.10;;;;;;;20.44;49.89;97405.75;5039359;28;20217;-71
2022/06/07 03:17:45;;;;;;;2.20;1.07;;;;;;;20.46;49.16;97406.34;5050806;28;20277;-71
2022/06/07 03:20:11;;;;;;;4.30;1.00;;;;;;;20.39;48.83;97410.88;5054543;28;20210;-72
2022/06/07 03:22:37;;;;;;;1.90;1.40;;;;;;;20.40;49.09;97408.00;5054204;28;20187;-72
2022/06/07 03:25:05;;;;;;;3.63;2.00;;;;;;;20.40;49.21;97409.84;5055508;28;20417;-71
2022/06/07 03:27:31;;;;;;;5.47;1.20;;;;;;;20.39;49.69;97409.03;5054807;28;20721;-70
2022/06/07 03:29:57;;;;;;;1.67;1.33;;;;;;;20.35;49.97;97410.47;5053982;28;20827;-70
2022/06/07 03:32:24;;;;;;;2.03;1.10;;;;;;;20.38;50.52;97415.38;5054317;28;20465;-70
2022/06/07 03:34:50;;;;;;;1.87;1.27;;;;;;;20.38;49.92;97410.06;5056727;28;20195;-70
2022/06/07 03:37:16;;;;;;;3.50;1.20;;;;;;;20.36;49.19;97405.94;5074372;28;20440;-70
2022/06/07 03:39:42;;;;;;;1.33;0.90;;;;;;;20.36;48.95;97401.47;5060840;28;20219;-71
2022/06/07 03:42:07;;;;;;;2.10;1.30;;;;;;;20.39;48.33;97406.38;5054701;28;20518;-70
2022/06/07 03:44:33;;;;;;;5.07;1.07;;;;;;;20.32;48.49;97408.22;5058247;28;20722;-71
2022/06/07 03:46:58;;;;;;;3.90;1.00;;;;;;;20.29;48.39;97408.63;5049446;28;20206;-71
2022/06/07 03:49:24;;;;;;;3.70;1.20;;;;;;;20.13;49.18;97406.44;5062448;28;20245;-70
2022/06/07 03:51:50;;;;;;;5.50;1.10;;;;;;;20.08;49.75;97413.22;5053998;28;20190;-70
2022/06/07 03:54:15;;;;;;;1.40;1.00;;;;;;;20.04;49.82;97404.00;5051916;28;20640;-71
2022/06/07 03:56:41;;;;;;;3.90;1.30;;;;;;;20.03;49.89;97402.41;5058350;28;20221;-71
2022/06/07 03:59:06;;;;;;;1.83;1.30;;;;;;;19.99;49.84;97403.81;5055080;28;20187;-70
2022/06/07 04:01:32;;;;;;;1.83;1.30;;;;;;;19.97;49.96;97403.22;5053887;28;20187;-70
2022/06/07 04:04:04;;;;;;;5.77;1.30;;;;;;;20.03;49.84;97407.72;5060543;28;20193;-71
2022/06/07 04:06:32;;;;;;;5.53;1.47;;;;;;;20.09;50.11;97400.75;5045592;28;20199;-71
2022/06/07 04:08:58;;;;;;;2.30;1.13;;;;;;;20.09;49.71;97401.53;5035747;28;20535;-71
2022/06/07 04:11:25;;;;;;;1.83;1.00;;;;;;;20.05;49.80;97404.84;5053326;28;20536;-70
2022/06/07 04:13:51;;;;;;;2.63;1.00;;;;;;;20.07;49.57;97403.59;5055867;28;20297;-70
2022/06/07 04:16:19;;;;;;;5.33;1.40;;;;;;;20.04;50.07;97398.69;5052129;28;20437;-70
2022/06/07 04:18:45;;;;;;;2.70;1.00;;;;;;;20.09;50.18;97401.53;5053616;28;20468;-71
2022/06/07 04:21:12;;;;;;;1.43;1.33;;;;;;;20.16;50.36;97400.72;5060543;28;20429;-71
2022/06/07 04:23:37;;;;;;;1.50;1.23;;;;;;;20.17;50.21;97403.16;5056712;28;20940;-70
2022/06/07 04:26:07;;;;;;;2.73;1.77;;;;;;;20.12;49.70;97407.47;5056026;28;20521;-70
2022/06/07 04:28:32;;;;;;;4.50;1.27;;;;;;;20.13;49.89;97412.56;5061731;28;20218;-71
2022/06/07 04:30:58;;;;;;;3.30;1.13;;;;;;;20.15;50.49;97409.72;5057395;28;20453;-71
2022/06/07 04:33:23;;;;;;;2.17;1.03;;;;;;;20.20;50.64;97413.41;5052790;28;20233;-71
2022/06/07 04:35:49;;;;;;;1.00;0.90;;;;;;;20.25;50.76;97415.41;5055410;28;20203;-71
2022/06/07 04:38:14;;;;;;;1.60;1.10;;;;;;;20.29;50.82;97418.47;5060841;28;20237;-71
2022/06/07 04:40:41;;;;;;;1.20;1.00;;;;;;;20.25;50.79;97424.22;5053094;28;20265;-70
2022/06/07 04:43:09;;;;;;;1.20;1.00;;;;;;;20.28;51.00;97422.16;5052521;28;20175;-71
2022/06/07 04:45:35;;;;;;;1.20;1.07;;;;;;;20.29;50.88;97419.28;5056025;28;20437;-71
2022/06/07 04:48:01;;;;;;;1.77;0.90;;;;;;;20.26;50.95;97425.03;5051822;28;20449;-72
2022/06/07 04:50:27;;;;;;;2.67;0.87;;;;;;;20.29;51.20;97426.47;5052702;28;20482;-71
2022/06/07 04:52:52;;;;;;;5.33;1.20;;;;;;;20.33;51.36;97425.81;5052369;28;20207;-72
2022/06/07 04:55:18;;;;;;;1.20;0.90;;;;;;;20.31;51.37;97430.53;5061016;28;20435;-70
2022/06/07 04:57:44;;;;;;;2.70;1.00;;;;;;;20.36;51.15;97427.25;5052483;28;20307;-71
2022/06/07 05:00:15;;;;;;;2.60;1.20;;;;;;;20.40;51.31;97423.16;5052298;28;20268;-71
2022/06/07 05:02:44;;;;;;;1.33;0.90;;;;;;;20.40;50.63;97434.63;5065473;28;20178;-70
2022/06/07 05:05:10;;;;;;;2.47;1.20;;;;;;;20.45;50.95;97430.50;5054326;28;20430;-71
2022/06/07 05:07:37;;;;;;;1.87;1.20;;;;;;;20.46;51.22;97434.78;5051895;28;20816;-71
2022/06/07 05:10:05;;;;;;;6.90;1.20;;;;;;;20.46;51.23;97445.44;5045078;28;20449;-70
2022/06/07 05:12:32;;;;;;;6.13;1.30;;;;;;;20.48;50.77;97452.19;5055344;28;20457;-71
2022/06/07 05:14:59;;;;;;;1.33;1.10;;;;;;;20.50;51.14;97446.66;5040924;28;20434;-70
2022/06/07 05:17:24;;;;;;;2.23;1.27;;;;;;;20.50;51.22;97454.66;5051400;28;21062;-71
2022/06/07 05:19:50;;;;;;;2.57;1.03;;;;;;;20.49;51.40;97447.69;5052285;28;20437;-72
2022/06/07 05:22:15;;;;;;;5.17;1.30;;;;;;;20.50;50.60;97459.97;5048179;28;20182;-70
2022/06/07 05:24:41;;;;;;;2.90;1.30;;;;;;;20.40;51.88;97449.75;5042115;28;20240;-70
2022/06/07 05:27:07;;;;;;;1.80;1.50;;;;;;;20.36;51.91;97449.38;5051778;28;20211;-71
2022/06/07 05:30:01;;;;;;;1.67;1.40;;;;;;;20.44;52.13;97450.16;5051086;28;20607;-71
2022/06/07 05:32:27;;;;;;;2.70;1.20;;;;;;;20.46;52.08;97462.25;5043012;28;20590;-71
2022/06/07 05:34:52;;;;;;;4.23;1.10;;;;;;;20.48;51.76;97462.81;5054396;28;21166;-71
2022/06/07 05:37:21;;;;;;;1.83;1.20;;;;;;;20.49;51.72;97463.66;5053139;28;20230;-71
2022/06/07 05:39:47;;;;;;;1.87;1.20;;;;;;;20.53;51.46;97454.25;5049060;28;20186;-71
2022/06/07 05:42:14;;;;;;;1.87;1.10;;;;;;;20.56;51.57;97454.63;5033819;28;20418;-72
2022/06/07 05:44:40;;;;;;;4.00;1.40;;;;;;;20.63;51.59;97449.28;5052207;28;20429;-71
2022/06/07 05:47:06;;;;;;;3.43;1.50;;;;;;;20.65;51.05;97457.03;5051540;28;20839;-71
2022/06/07 05:49:32;;;;;;;5.00;1.20;;;;;;;20.70;50.51;97470.56;5052267;28;20190;-71
2022/06/07 05:52:00;;;;;;;3.27;1.07;;;;;;;20.74;50.12;97469.09;5052408;28;20455;-72
2022/06/07 05:54:28;;;;;;;1.20;1.10;;;;;;;20.76;50.57;97471.59;5049381;28;20429;-71
2022/06/07 05:56:53;;;;;;;2.63;1.27;;;;;;;20.79;50.47;97460.53;5051507;28;20448;-71
2022/06/07 05:59:19;;;;;;;3.70;1.10;;;;;;;20.84;50.12;97468.69;5059549;28;20527;-72
2022/06/07 06:01:45;;;;;;;2.83;1.30;;;;;;;20.81;49.78;97461.09;5051914;28;20225;-72
2022/06/07 06:04:10;;;;;;;2.03;1.27;;;;;;;20.75;49.78;97465.44;5058754;28;20179;-71
2022/06/07 06:06:36;;;;;;;3.23;1.37;;;;;;;20.85;49.96;97467.66;5051327;28;20729;-71
2022/06/07 06:11:46;;;;;;;2.80;1.10;;;;;;;20.98;50.13;97470.25;5045762;28;20305;-72
2022/06/07 06:14:12;;;;;;;2.27;1.20;;;;;;;21.04;50.28;97470.44;5052693;28;20898;-71
2022/06/07 06:16:37;;;;;;;1.40;1.30;;;;;;;21.10;50.76;97470.41;5057709;28;20212;-72
2022/06/07 06:19:03;;;;;;;2.77;1.23;;;;;;;21.14;50.30;97471.59;5051539;28;20171;-71
2022/06/07 06:21:36;;;;;;;4.00;1.27;;;;;;;21.20;49.76;97467.25;5051602;28;20254;-72
2022/06/07 06:24:03;;;;;;;8.53;1.60;;;;;;;21.28;50.12;97463.53;5026454;28;20176;-71
2022/06/07 06:26:28;;;;;;;1.87;1.17;;;;;;;21.29;49.56;97476.66;5049674;28;20445;-71
2022/06/07 06:28:54;;;;;;;1.97;1.33;;;;;;;21.35;50.14;97464.31;5050973;28;20431;-71
2022/06/07 06:31:20;;;;;;;1.80;1.30;;;;;;;21.41;50.45;97466.09;5049865;28;20205;-71
2022/06/07 06:33:49;;;;;;;2.60;1.33;;;;;;;21.47;49.87;97451.91;5049215;28;20289;-70
2022/06/07 06:36:17;;;;;;;2.20;1.50;;;;;;;21.60;49.58;97459.03;5054900;28;20174;-70
2022/06/07 06:38:43;;;;;;;4.87;1.40;;;;;;;21.66;49.02;97457.34;5049689;28;20472;-72
2022/06/07 06:41:20;;;;;;;4.50;1.40;;;;;;;21.84;48.63;97461.91;5050911;28;20446;-73
2022/06/07 06:43:47;;;;;;;1.57;1.33;;;;;;;22.00;48.80;97468.53;5051217;28;20467;-72
2022/06/07 06:46:23;;;;;;;2.60;1.47;;;;;;;21.96;48.07;97469.19;5050118;28;20521;-72
2022/06/07 06:48:49;;;;;;;2.30;1.23;;;;;;;22.04;47.72;97468.94;5049721;28;20424;-72
2022/06/07 06:51:18;;;;;;;3.87;1.60;;;;;;;22.09;47.43;97469.06;5050654;28;20422;-72
2022/06/07 06:53:44;;;;;;;6.73;1.37;;;;;;;22.21;47.86;97474.50;5049431;28;20449;-71
2022/06/07 06:56:11;;;;;;;1.90;1.37;;;;;;;22.37;47.92;97470.44;5050819;28;20425;-71
2022/06/07 06:58:38;;;;;;;3.47;1.20;;;;;;;22.53;46.91;97469.88;5050681;28;20460;-73
2022/06/07 07:01:10;;;;;;;3.10;1.30;;;;;;;22.73;46.83;97468.81;5050709;28;20518;-72
2022/06/07 07:03:36;;;;;;;6.60;1.30;;;;;;;22.90;46.01;97471.69;5058317;28;20925;-73
2022/06/07 07:06:03;;;;;;;1.83;1.40;;;;;;;23.09;45.65;97469.78;5050355;28;20453;-72
2022/06/07 07:08:29;;;;;;;2.87;1.30;;;;;;;23.21;44.67;97467.19;5049283;28;20441;-72
2022/06/07 07:11:06;;;;;;;1.50;1.10;;;;;;;23.29;44.40;97472.22;5047202;28;20418;-70
2022/06/07 07:13:32;;;;;;;1.83;1.23;;;;;;;23.39;44.35;97463.66;5043057;28;20967;-71
2022/06/07 07:15:57;;;;;;;3.00;1.10;;;;;;;23.38;44.72;97466.53;5049715;28;20428;-72
2022/06/07 07:18:23;;;;;;;2.47;1.20;;;;;;;23.25;43.63;97462.22;5050513;28;20282;-72
2022/06/07 07:20:49;;;;;;;1.23;1.10;;;;;;;23.33;43.49;97455.72;5049536;28;20646;-72
2022/06/07 07:23:16;;;;;;;2.33;1.10;;;;;;;23.50;43.97;97458.56;5048813;28;20501;-71
2022/06/07 07:25:41;;;;;;;2.80;1.10;;;;;;;23.71;43.80;97458.00;5048811;28;20175;-73
2022/06/07 07:28:07;;;;;;;1.47;1.20;;;;;;;23.97;42.95;97457.81;5050069;28;20464;-70
2022/06/07 07:30:32;;;;;;;2.27;1.10;;;;;;;24.16;42.48;97456.63;5050421;28;20176;-71
2022/06/07 07:32:58;;;;;;;3.67;1.23;;;;;;;24.44;42.48;97452.41;5050695;28;20564;-72
2022/06/07 07:35:24;;;;;;;2.50;1.23;;;;;;;24.69;40.63;97449.50;5054184;28;20219;-71
2022/06/07 07:37:50;;;;;;;1.57;1.07;;;;;;;24.82;40.73;97459.09;5050497;28;20210;-71
2022/06/07 07:40:16;;;;;;;2.40;1.00;;;;;;;25.02;40.52;97465.09;5049211;28;20865;-71
2022/06/07 07:42:41;;;;;;;1.97;1.10;;;;;;;25.18;39.78;97456.28;5050789;28;20424;-70
2022/06/07 07:45:08;;;;;;;2.77;1.17;;;;;;;25.34;39.49;97453.84;5049813;28;20185;-71
2022/06/07 07:47:34;;;;;;;1.93;0.83;;;;;;;25.39;38.91;97452.06;5050069;28;20203;-70
2022/06/07 07:50:00;;;;;;;1.00;0.90;;;;;;;25.34;39.08;97453.84;5047274;28;20501;-70
2022/06/07 07:52:25;;;;;;;1.10;0.80;;;;;;;25.39;39.27;97452.06;5050191;28;20575;-71
2022/06/07 07:54:51;;;;;;;1.30;0.90;;;;;;;25.40;38.81;97447.53;5049399;28;20270;-70
2022/06/07 07:57:16;;;;;;;1.87;1.10;;;;;;;25.50;37.77;97458.47;5049891;28;20265;-70
2022/06/07 07:59:42;;;;;;;2.30;1.00;;;;;;;25.53;37.69;97444.56;5053816;28;20597;-71
2022/06/07 08:02:15;;;;;;;2.93;1.03;;;;;;;25.55;37.53;97449.69;5053859;28;20183;-71
2022/06/07 08:04:41;;;;;;;1.37;1.10;;;;;;;25.73;37.05;97438.72;5046361;28;20281;-70
2022/06/07 08:07:07;;;;;;;3.17;0.97;;;;;;;25.88;37.33;97437.34;5053765;28;20535;-71
2022/06/07 08:09:33;;;;;;;1.10;0.77;;;;;;;25.92;37.46;97433.91;5054046;28;20176;-70
2022/06/07 08:11:59;;;;;;;4.90;0.83;;;;;;;25.84;36.62;97447.72;5053797;28;20433;-70
2022/06/07 08:14:25;;;;;;;3.20;1.00;;;;;;;25.83;36.45;97434.56;5053853;28;20222;-70
2022/06/07 08:16:50;;;;;;;1.43;0.80;;;;;;;26.05;36.28;97438.09;5053459;28;20535;-72
2022/06/07 08:19:18;;;;;;;1.47;0.90;;;;;;;26.27;36.38;97434.69;5052441;28;20538;-71
2022/06/07 08:21:44;;;;;;;1.93;0.77;;;;;;;26.48;34.38;97441.09;5053458;28;20170;-71
2022/06/07 08:24:09;;;;;;;1.77;1.03;;;;;;;26.29;33.70;97434.44;5052436;28;20943;-72
2022/06/07 08:26:35;;;;;;;3.33;0.90;;;;;;;25.99;34.49;97433.72;5053482;28;20274;-72
2022/06/07 08:29:02;;;;;;;2.50;1.00;;;;;;;25.83;35.34;97431.88;5053843;28;20179;-70
2022/06/07 08:31:30;;;;;;;2.20;0.90;;;;;;;25.59;36.22;97440.91;5053627;28;20666;-71
2022/06/07 08:39:25;;;;;;;2.27;1.00;;;;;;;25.05;37.37;97445.84;5061013;28;20422;-70
2022/06/07 08:42:13;;;;;;;2.90;1.10;;;;;;;25.05;37.89;97437.81;5053317;28;20491;-71
2022/06/07 08:44:45;;;;;;;2.10;1.00;;;;;;;25.20;37.42;97432.72;5045888;28;20835;-72
2022/06/07 08:47:26;;;;;;;4.10;0.80;;;;;;;25.27;37.69;97440.59;5051618;28;20445;-72
2022/06/07 08:49:54;;;;;;;1.07;0.97;;;;;;;25.47;38.02;97432.13;5052267;28;20500;-72
2022/06/07 08:52:24;;;;;;;3.20;1.00;;;;;;;25.66;37.42;97435.38;5052855;28;20506;-70
2022/06/07 08:54:50;;;;;;;1.30;0.90;;;;;;;25.91;35.71;97426.06;5052238;28;20433;-71
2022/06/07 08:57:18;;;;;;;1.00;0.80;;;;;;;26.05;36.01;97421.19;5050989;28;20792;-71
2022/06/07 08:59:46;;;;;;;2.20;1.00;;;;;;;26.27;35.03;97418.56;5053201;28;20258;-71
2022/06/07 09:02:42;;;;;;;0.90;0.80;;;;;;;26.55;35.07;97419.44;5053156;28;20432;-71
2022/06/07 09:05:14;;;;;;;2.30;0.80;;;;;;;26.87;34.25;97415.22;5055703;28;20426;-71
2022/06/07 09:07:40;;;;;;;1.93;0.93;;;;;;;27.05;33.91;97406.81;5052766;28;20472;-73
2022/06/07 09:13:24;;;;;;;3.53;0.80;;;;;;;26.77;33.41;97403.28;5038658;28;20749;-72
2022/06/07 09:15:55;;;;;;;2.30;0.97;;;;;;;26.43;34.53;97402.63;5046996;28;21146;-72
2022/06/07 09:18:25;;;;;;;3.33;1.00;;;;;;;26.17;35.05;97404.97;5052274;28;20556;-72
2022/06/07 09:20:54;;;;;;;2.23;0.80;;;;;;;25.94;35.54;97401.44;5052785;28;20448;-71
2022/06/07 09:23:23;;;;;;;2.60;1.03;;;;;;;25.72;35.86;97396.84;5051476;28;20434;-72
2022/06/07 09:25:51;;;;;;;1.67;1.23;;;;;;;25.63;36.25;97392.13;5046735;28;20443;-73
2022/06/07 09:28:28;;;;;;;2.30;0.90;;;;;;;25.60;36.10;97390.75;5051966;28;20449;-70
2022/06/07 09:31:13;;;;;;;1.87;0.97;;;;;;;25.58;36.24;97390.97;5052505;28;20430;-71
2022/06/07 09:33:56;;;;;;;1.33;0.80;;;;;;;25.50;35.52;97383.34;5045247;28;20867;-70
2022/06/07 09:36:28;;;;;;;1.10;0.90;;;;;;;25.43;35.62;97393.44;5055411;28;20430;-71
2022/06/07 09:38:56;;;;;;;4.40;0.90;;;;;;;25.53;35.94;97388.22;5052453;28;20421;-71
2022/06/07 09:41:36;;;;;;;7.03;1.20;;;;;;;25.79;35.98;97380.56;5050806;28;20429;-70
2022/06/07 09:44:25;;;;;;;1.00;0.70;;;;;;;25.88;33.50;97383.66;5050981;28;20433;-71
2022/06/07 09:46:59;;;;;;;2.77;1.00;;;;;;;25.77;33.18;97380.00;5051966;28;20484;-70
2022/06/07 09:49:34;;;;;;;1.93;0.90;;;;;;;25.71;34.37;97379.09;5051384;28;20420;-71
2022/06/07 09:52:11;;;;;;;2.03;1.00;;;;;;;25.64;33.31;97383.84;5046890;28;20433;-70
2022/06/07 09:54:44;;;;;;;1.47;1.20;;;;;;;25.56;34.33;97376.19;5043803;28;20804;-71
2022/06/07 09:57:41;;;;;;;2.50;0.83;;;;;;;25.49;34.61;97376.34;5049812;28;20539;-71
2022/06/07 10:00:17;;;;;;;3.47;1.00;;;;;;;25.48;34.91;97377.41;5051826;28;20790;-71
2022/06/07 10:03:04;;;;;;;3.00;0.80;;;;;;;25.51;35.02;97374.25;5056350;28;20495;-69
2022/06/07 10:05:43;;;;;;;2.03;1.00;;;;;;;25.78;34.70;97370.88;5043874;28;20768;-71
2022/06/07 10:08:24;;;;;;;1.97;0.87;;;;;;;25.87;33.60;97372.06;5049970;28;20449;-70
2022/06/07 10:11:20;;;;;;;3.13;1.00;;;;;;;25.99;34.11;97371.16;5050100;28;20532;-71
2022/06/07 10:13:52;;;;;;;2.07;1.00;;;;;;;25.64;33.81;97366.91;5036568;28;20469;-71
2022/06/07 10:16:31;;;;;;;2.10;0.90;;;;;;;25.93;33.90;97364.91;5050943;28;20520;-71
2022/06/07 10:19:15;;;;;;;1.63;0.77;;;;;;;26.41;33.57;97354.53;5050502;28;20483;-71
2022/06/07 10:22:09;;;;;;;2.53;0.73;;;;;;;26.62;33.22;97352.06;5045167;28;20437;-71
2022/06/07 10:24:59;;;;;;;6.17;0.80;;;;;;;26.75;33.23;97356.22;5043238;28;20946;-71
2022/06/07 10:27:44;;;;;;;3.83;1.00;;;;;;;26.48;32.83;97360.50;5050612;28;20481;-70
2022/06/07 10:30:38;;;;;;;2.17;0.90;;;;;;;26.34;32.32;97357.41;5049763;28;20487;-70
2022/06/07 10:33:15;;;;;;;4.70;1.20;;;;;;;26.18;32.92;97356.41;5051195;28;20489;-69
2022/06/07 10:35:50;;;;;;;2.07;0.80;;;;;;;26.00;33.36;97354.00;5053321;28;20429;-71
2022/06/07 10:38:21;;;;;;;2.70;0.80;;;;;;;25.82;33.41;97358.59;5049362;28;20944;-70
2022/06/07 10:40:47;;;;;;;2.40;0.73;;;;;;;25.70;34.09;97355.22;5051161;28;20974;-70
2022/06/07 10:43:24;;;;;;;1.00;0.80;;;;;;;25.55;34.21;97359.28;5050786;28;20425;-70
2022/06/07 10:45:54;;;;;;;5.13;1.00;;;;;;;25.45;34.32;97362.63;5049781;28;20531;-71
2022/06/07 10:48:37;;;;;;;4.20;1.13;;;;;;;25.36;34.05;97360.56;5049227;28;20464;-70
2022/06/07 10:52:20;;;;;;;2.13;0.80;;;;;;;25.30;34.98;97357.81;5049534;28;20774;-70
2022/06/07 10:53:55;;;;;;;1.73;0.90;;;;;;;25.18;35.41;97364.28;5049438;28;21182;-70
2022/06/07 10:56:27;;;;;;;1.73;0.77;;;;;;;25.23;35.78;97357.16;5050639;28;21041;-73
2022/06/07 10:58:54;;;;;;;2.10;0.90;;;;;;;25.33;35.69;97347.66;5050983;28;20460;-70
2022/06/07 11:01:29;;;;;;;2.60;0.80;;;;;;;25.49;35.39;97352.22;5050765;28;20429;-70
2022/06/07 11:04:10;;;;;;;1.93;0.90;;;;;;;25.71;34.59;97348.75;5058124;28;20457;-71
2022/06/07 11:09:37;;;;;;;1.57;1.00;;;;;;;26.21;34.97;97339.78;5041854;28;20426;-70
2022/06/07 11:12:13;;;;;;;1.97;0.80;;;;;;;26.17;34.24;97335.16;5049233;28;20413;-71
2022/06/07 11:15:01;;;;;;;1.70;0.90;;;;;;;26.11;34.35;97342.34;5049733;28;20572;-71
2022/06/07 11:17:47;;;;;;;4.10;1.10;;;;;;;26.15;34.78;97345.38;5050541;28;20453;-71
2022/06/07 11:20:27;;;;;;;1.13;0.70;;;;;;;26.15;34.88;97340.78;5049481;28;20432;-72
2022/06/07 11:23:03;;;;;;;1.47;0.80;;;;;;;26.36;33.72;97338.34;5059392;28;20436;-71
2022/06/07 11:25:32;;;;;;;1.43;0.93;;;;;;;26.50;35.08;97328.03;5048059;28;20433;-72
2022/06/07 11:28:00;;;;;;;3.53;0.90;;;;;;;26.47;33.92;97323.94;5047362;28;20434;-70
2022/06/07 11:30:40;;;;;;;1.83;0.90;;;;;;;26.43;33.87;97322.03;5049397;28;20428;-70
2022/06/07 11:33:38;;;;;;;2.30;0.87;;;;;;;26.18;34.18;97328.72;5050301;28;20470;-72
2022/06/07 11:36:23;;;;;;;3.30;1.07;;;;;;;25.85;34.98;97325.88;5058340;28;20480;-71
2022/06/07 11:38:55;;;;;;;2.00;1.07;;;;;;;25.58;36.64;97329.28;5053576;28;20425;-71
2022/06/07 11:41:40;;;;;;;5.20;0.80;;;;;;;25.54;36.86;97321.97;5054456;28;20939;-71
2022/06/07 11:44:11;;;;;;;1.27;0.90;;;;;;;25.45;37.30;97318.91;5054108;28;20418;-72
2022/06/07 11:46:57;;;;;;;2.03;1.10;;;;;;;25.33;38.01;97323.53;5054438;28;20441;-72
2022/06/07 11:49:29;;;;;;;1.40;1.00;;;;;;;25.21;38.19;97319.03;5053065;28;20832;-71
2022/06/07 11:52:12;;;;;;;3.47;1.03;;;;;;;25.22;38.45;97311.81;5054794;28;20429;-72
2022/06/07 11:54:45;;;;;;;1.10;1.00;;;;;;;25.25;38.08;97317.50;5046574;28;20429;-71
2022/06/07 11:57:32;;;;;;;2.60;0.90;;;;;;;25.37;38.30;97314.75;5052573;28;20441;-72
2022/06/07 12:00:23;;;;;;;1.60;1.10;;;;;;;25.54;37.29;97304.00;5054116;28;20425;-72
2022/06/07 12:02:57;;;;;;;2.90;1.00;;;;;;;25.69;36.63;97305.28;5051377;28;20424;-71
2022/06/07 12:05:40;;;;;;;1.63;1.00;;;;;;;25.74;36.40;97308.03;5053844;28;20424;-73